Ormsby, MN

02:13 PM CST del 21 novembre 2014 (GMT -0600)
Saint James Municipal | Change Station
CLOSE
Current Station
Aeroporto
Location: St. James,
Altitudine: 1066 ft
Stazioni meteo nelle vicinanze

Alt. 1066 ft 43.99 °N, 94.56 °W | Updated 19 minutes ago

Parzialmente nuvoloso
Parzialmente nuvoloso
30 °F
Sembra 17 °F
N
21
Vento Variabile Vento da Sud
Gusts 28 mph

Oggi
Massima -- | Minima -- °F
--% Possibilità di precip.
Ieri
Massima -- | Minima -- °F
Precip. -- in
7:21 AM 4:47 PM
Luna calante, 1% visible
Pressione 30.02 in
Visibilità 10.0 miglia
Nuvole Sereno
Raffreddamento del vento 17 °F
Punto di rugiada 23 °F
Umidità 75%
Piovosità 0.00 in
Spessore del manto nevoso Non disponibile.
Raggi UV 2 fuori da 12
Polline .10 fuori da 12
Qualità dell'aria Non disponibile.
Flu Activity Non disponibile.
METAR KJYG 211954Z AUTO 17018G24KT 10SM CLR M01/M05 A3002 RMK AO2

More Conditions Fewer Conditions

Pressione 30.02 in
Visibilità 10.0 miglia
Nuvole Sereno
Raffreddamento del vento 17 °F
Punto di rugiada 23 °F
Umidità 75%
Piovosità 0.00 in
Spessore del manto nevoso Non disponibile.
Raggi UV 2 fuori da 12
Polline .10 fuori da 12
Qualità dell'aria Non disponibile.
Flu Activity Non disponibile.
METAR KJYG 211954Z AUTO 17018G24KT 10SM CLR M01/M05 A3002 RMK AO2

More Conditions Fewer Conditions

10-Day Weather Forecast

Almanac

Astronomia

Nov. 21, 2014 Alba Tramonto
Ora attuale
Crepuscolo civile
Crepuscolo nautico
Crepuscolo astronomico
Luna
Estensione della luce visibile
Lunghezza del giorno
Tomorrow will be .
, % of the Moon is Illuminated

Gli estremi di oggi

State Highs State Lows

Community

WunderPhotos

Upload Photos

1,772,710 foto caricate!

WunderBlogs® & News

Nearby

Qualità dell'aria

  Qualità dell'aria Indice AQ Inquinante
Not available.

Profondità neve

Stazione Profondità Altitudine

Attività sismica

Città  Distanza Mag. Data & Ora
Minimo Magnitudo Mostrato è 2.5.

Temperature delle acque costiere

Località Temperatura

Stazioni meteo nelle vicinanze